sensor_id;sensor_type;location;lat;lon;timestamp;temperature;humidity
63875;DHT22;51595;24.180;-110.296;2022-08-01T00:01:45;34.80;69.00
63875;DHT22;51595;24.180;-110.296;2022-08-01T00:04:12;34.80;69.50
63875;DHT22;51595;24.180;-110.296;2022-08-01T00:06:38;34.80;69.40
63875;DHT22;51595;24.180;-110.296;2022-08-01T00:09:05;34.90;68.60
63875;DHT22;51595;24.180;-110.296;2022-08-01T00:11:31;34.90;68.60
63875;DHT22;51595;24.180;-110.296;2022-08-01T00:13:57;34.70;68.60
63875;DHT22;51595;24.180;-110.296;2022-08-01T00:16:24;34.50;69.30
63875;DHT22;51595;24.180;-110.296;2022-08-01T00:18:51;34.30;69.70
63875;DHT22;51595;24.180;-110.296;2022-08-01T00:21:18;34.30;69.80
63875;DHT22;51595;24.180;-110.296;2022-08-01T00:23:44;34.50;69.70
63875;DHT22;51595;24.180;-110.296;2022-08-01T00:26:12;34.70;69.40
63875;DHT22;51595;24.180;-110.296;2022-08-01T00:28:39;34.90;68.90
63875;DHT22;51595;24.180;-110.296;2022-08-01T00:31:05;35.00;68.80
63875;DHT22;51595;24.180;-110.296;2022-08-01T00:33:32;34.50;69.40
63875;DHT22;51595;24.180;-110.296;2022-08-01T00:35:58;34.30;69.90
63875;DHT22;51595;24.180;-110.296;2022-08-01T00:38:25;34.70;70.00
63875;DHT22;51595;24.180;-110.296;2022-08-01T00:40:51;35.20;67.90
63875;DHT22;51595;24.180;-110.296;2022-08-01T00:43:18;35.30;67.20
63875;DHT22;51595;24.180;-110.296;2022-08-01T00:45:44;35.40;66.50
63875;DHT22;51595;24.180;-110.296;2022-08-01T00:48:10;35.50;66.10
63875;DHT22;51595;24.180;-110.296;2022-08-01T00:50:38;35.50;65.90
63875;DHT22;51595;24.180;-110.296;2022-08-01T00:53:05;35.50;66.90
63875;DHT22;51595;24.180;-110.296;2022-08-01T00:55:32;35.30;66.40
63875;DHT22;51595;24.180;-110.296;2022-08-01T00:57:59;35.40;66.40
63875;DHT22;51595;24.180;-110.296;2022-08-01T01:00:28;35.70;65.80
63875;DHT22;51595;24.180;-110.296;2022-08-01T01:02:54;35.40;65.90
63875;DHT22;51595;24.180;-110.296;2022-08-01T01:05:21;35.20;66.50
63875;DHT22;51595;24.180;-110.296;2022-08-01T01:13:30;35.20;67.00
63875;DHT22;51595;24.180;-110.296;2022-08-01T01:16:13;35.20;66.40
63875;DHT22;51595;24.180;-110.296;2022-08-01T01:19:00;35.50;65.70
63875;DHT22;51595;24.180;-110.296;2022-08-01T01:21:52;35.30;66.30
63875;DHT22;51595;24.180;-110.296;2022-08-01T01:27:24;34.40;68.70
63875;DHT22;51595;24.180;-110.296;2022-08-01T01:29:55;34.30;68.80
63875;DHT22;51595;24.180;-110.296;2022-08-01T01:32:58;34.30;69.10
63875;DHT22;51595;24.180;-110.296;2022-08-01T01:35:28;34.40;69.30
63875;DHT22;51595;24.180;-110.296;2022-08-01T01:38:04;34.50;67.90
63875;DHT22;51595;24.180;-110.296;2022-08-01T01:40:31;34.20;68.20
63875;DHT22;51595;24.180;-110.296;2022-08-01T01:42:59;34.10;67.90
63875;DHT22;51595;24.180;-110.296;2022-08-01T01:45:26;34.00;68.20
63875;DHT22;51595;24.180;-110.296;2022-08-01T01:47:54;33.70;68.60
63875;DHT22;51595;24.180;-110.296;2022-08-01T01:50:22;33.60;69.10
63875;DHT22;51595;24.180;-110.296;2022-08-01T01:52:50;33.50;69.80
63875;DHT22;51595;24.180;-110.296;2022-08-01T01:55:19;33.50;70.10
63875;DHT22;51595;24.180;-110.296;2022-08-01T01:57:46;33.40;70.50
63875;DHT22;51595;24.180;-110.296;2022-08-01T02:00:14;33.30;70.80
63875;DHT22;51595;24.180;-110.296;2022-08-01T02:02:42;33.20;71.10
63875;DHT22;51595;24.180;-110.296;2022-08-01T02:05:11;33.30;70.90
63875;DHT22;51595;24.180;-110.296;2022-08-01T02:07:39;33.10;70.80
63875;DHT22;51595;24.180;-110.296;2022-08-01T02:10:07;32.90;71.30
63875;DHT22;51595;24.180;-110.296;2022-08-01T02:12:37;32.80;71.70
63875;DHT22;51595;24.180;-110.296;2022-08-01T02:15:06;32.90;71.80
63875;DHT22;51595;24.180;-110.296;2022-08-01T02:17:37;32.70;72.20
63875;DHT22;51595;24.180;-110.296;2022-08-01T02:20:06;32.60;72.80
63875;DHT22;51595;24.180;-110.296;2022-08-01T02:22:46;32.60;73.10
63875;DHT22;51595;24.180;-110.296;2022-08-01T02:25:39;32.60;73.10
63875;DHT22;51595;24.180;-110.296;2022-08-01T02:28:13;32.60;73.20
63875;DHT22;51595;24.180;-110.296;2022-08-01T02:30:46;32.50;75.20
63875;DHT22;51595;24.180;-110.296;2022-08-01T02:33:20;32.40;76.70
63875;DHT22;51595;24.180;-110.296;2022-08-01T02:35:54;32.20;80.20
63875;DHT22;51595;24.180;-110.296;2022-08-01T02:38:24;32.00;80.90
63875;DHT22;51595;24.180;-110.296;2022-08-01T02:40:54;31.90;82.10
63875;DHT22;51595;24.180;-110.296;2022-08-01T02:43:26;31.90;81.70
63875;DHT22;51595;24.180;-110.296;2022-08-01T02:45:56;31.80;78.60
63875;DHT22;51595;24.180;-110.296;2022-08-01T02:48:25;31.90;77.30
63875;DHT22;51595;24.180;-110.296;2022-08-01T02:50:55;31.90;79.10
63875;DHT22;51595;24.180;-110.296;2022-08-01T02:53:24;31.90;78.40
63875;DHT22;51595;24.180;-110.296;2022-08-01T02:55:53;31.80;78.60
63875;DHT22;51595;24.180;-110.296;2022-08-01T02:58:20;31.70;80.00
63875;DHT22;51595;24.180;-110.296;2022-08-01T03:00:50;31.50;80.50
63875;DHT22;51595;24.180;-110.296;2022-08-01T03:03:17;31.40;80.40
63875;DHT22;51595;24.180;-110.296;2022-08-01T03:05:44;31.40;80.00
63875;DHT22;51595;24.180;-110.296;2022-08-01T03:08:12;31.30;79.70
63875;DHT22;51595;24.180;-110.296;2022-08-01T03:10:41;31.30;79.40
63875;DHT22;51595;24.180;-110.296;2022-08-01T03:13:08;31.30;78.40
63875;DHT22;51595;24.180;-110.296;2022-08-01T03:15:38;31.30;78.70
63875;DHT22;51595;24.180;-110.296;2022-08-01T03:18:09;31.40;79.70
63875;DHT22;51595;24.180;-110.296;2022-08-01T03:20:36;31.20;78.70
63875;DHT22;51595;24.180;-110.296;2022-08-01T03:23:08;31.20;78.00
63875;DHT22;51595;24.180;-110.296;2022-08-01T03:25:38;31.20;78.10
63875;DHT22;51595;24.180;-110.296;2022-08-01T03:28:07;31.30;78.40
63875;DHT22;51595;24.180;-110.296;2022-08-01T03:30:36;31.20;78.60
63875;DHT22;51595;24.180;-110.296;2022-08-01T03:33:03;31.20;79.00
63875;DHT22;51595;24.180;-110.296;2022-08-01T03:35:34;31.10;79.40
63875;DHT22;51595;24.180;-110.296;2022-08-01T03:38:02;31.00;79.90
63875;DHT22;51595;24.180;-110.296;2022-08-01T03:40:40;31.10;80.30
63875;DHT22;51595;24.180;-110.296;2022-08-01T03:43:36;31.00;81.00
63875;DHT22;51595;24.180;-110.296;2022-08-01T03:46:09;30.90;81.10
63875;DHT22;51595;24.180;-110.296;2022-08-01T03:48:41;30.90;80.70
63875;DHT22;51595;24.180;-110.296;2022-08-01T03:51:09;30.90;80.70
63875;DHT22;51595;24.180;-110.296;2022-08-01T03:53:37;31.00;80.90
63875;DHT22;51595;24.180;-110.296;2022-08-01T03:56:06;31.00;81.70
63875;DHT22;51595;24.180;-110.296;2022-08-01T03:58:36;30.90;82.10
63875;DHT22;51595;24.180;-110.296;2022-08-01T04:01:06;30.90;82.70
63875;DHT22;51595;24.180;-110.296;2022-08-01T04:03:33;30.90;82.90
63875;DHT22;51595;24.180;-110.296;2022-08-01T04:06:03;30.90;82.60
63875;DHT22;51595;24.180;-110.296;2022-08-01T04:08:39;30.90;83.50
63875;DHT22;51595;24.180;-110.296;2022-08-01T04:11:08;31.00;83.50
63875;DHT22;51595;24.180;-110.296;2022-08-01T04:13:37;31.10;83.90
63875;DHT22;51595;24.180;-110.296;2022-08-01T04:16:04;31.00;84.10
63875;DHT22;51595;24.180;-110.296;2022-08-01T04:18:30;30.80;84.60
63875;DHT22;51595;24.180;-110.296;2022-08-01T04:20:57;30.80;84.90
63875;DHT22;51595;24.180;-110.296;2022-08-01T04:23:25;30.70;85.10
63875;DHT22;51595;24.180;-110.296;2022-08-01T04:25:52;30.80;85.30
63875;DHT22;51595;24.180;-110.296;2022-08-01T04:28:21;30.90;84.70
63875;DHT22;51595;24.180;-110.296;2022-08-01T04:30:50;30.90;84.70
63875;DHT22;51595;24.180;-110.296;2022-08-01T04:33:19;30.70;85.20
63875;DHT22;51595;24.180;-110.296;2022-08-01T04:35:47;30.60;85.80
63875;DHT22;51595;24.180;-110.296;2022-08-01T04:38:22;30.50;86.10
63875;DHT22;51595;24.180;-110.296;2022-08-01T04:40:53;30.50;86.40
63875;DHT22;51595;24.180;-110.296;2022-08-01T04:43:20;30.60;86.20
63875;DHT22;51595;24.180;-110.296;2022-08-01T04:45:47;30.50;86.20
63875;DHT22;51595;24.180;-110.296;2022-08-01T04:48:17;30.50;86.80
63875;DHT22;51595;24.180;-110.296;2022-08-01T04:50:47;30.50;86.90
63875;DHT22;51595;24.180;-110.296;2022-08-01T04:53:17;30.60;86.60
63875;DHT22;51595;24.180;-110.296;2022-08-01T04:55:44;30.70;86.40
63875;DHT22;51595;24.180;-110.296;2022-08-01T04:58:24;30.60;86.60
63875;DHT22;51595;24.180;-110.296;2022-08-01T05:00:50;30.30;87.20
63875;DHT22;51595;24.180;-110.296;2022-08-01T05:03:17;30.30;87.70
63875;DHT22;51595;24.180;-110.296;2022-08-01T05:05:43;30.20;88.00
63875;DHT22;51595;24.180;-110.296;2022-08-01T05:08:10;30.20;88.20
63875;DHT22;51595;24.180;-110.296;2022-08-01T05:10:37;30.10;88.10
63875;DHT22;51595;24.180;-110.296;2022-08-01T05:13:03;30.20;88.60
63875;DHT22;51595;24.180;-110.296;2022-08-01T05:15:30;30.20;88.80
63875;DHT22;51595;24.180;-110.296;2022-08-01T05:17:56;30.10;89.50
63875;DHT22;51595;24.180;-110.296;2022-08-01T05:20:23;30.10;89.70
63875;DHT22;51595;24.180;-110.296;2022-08-01T05:22:49;30.00;90.00
63875;DHT22;51595;24.180;-110.296;2022-08-01T05:25:16;30.00;90.20
63875;DHT22;51595;24.180;-110.296;2022-08-01T05:27:43;29.90;90.30
63875;DHT22;51595;24.180;-110.296;2022-08-01T05:30:10;30.00;90.20
63875;DHT22;51595;24.180;-110.296;2022-08-01T05:32:37;30.00;90.20
63875;DHT22;51595;24.180;-110.296;2022-08-01T05:35:04;30.00;90.40
63875;DHT22;51595;24.180;-110.296;2022-08-01T05:37:31;30.00;90.60
63875;DHT22;51595;24.180;-110.296;2022-08-01T05:39:57;29.80;90.90
63875;DHT22;51595;24.180;-110.296;2022-08-01T05:42:24;29.70;91.30
63875;DHT22;51595;24.180;-110.296;2022-08-01T05:44:50;29.70;91.60
63875;DHT22;51595;24.180;-110.296;2022-08-01T05:47:17;29.70;92.10
63875;DHT22;51595;24.180;-110.296;2022-08-01T05:49:45;29.60;92.50
63875;DHT22;51595;24.180;-110.296;2022-08-01T05:52:12;29.60;93.10
63875;DHT22;51595;24.180;-110.296;2022-08-01T05:54:38;29.60;93.70
63875;DHT22;51595;24.180;-110.296;2022-08-01T05:57:05;29.70;93.50
63875;DHT22;51595;24.180;-110.296;2022-08-01T05:59:31;29.70;93.50
63875;DHT22;51595;24.180;-110.296;2022-08-01T06:01:58;29.80;93.50
63875;DHT22;51595;24.180;-110.296;2022-08-01T06:04:25;30.00;93.50
63875;DHT22;51595;24.180;-110.296;2022-08-01T06:06:51;29.80;93.60
63875;DHT22;51595;24.180;-110.296;2022-08-01T06:09:17;29.80;93.90
63875;DHT22;51595;24.180;-110.296;2022-08-01T06:11:44;29.70;94.10
63875;DHT22;51595;24.180;-110.296;2022-08-01T06:14:10;29.70;94.40
63875;DHT22;51595;24.180;-110.296;2022-08-01T06:16:37;29.60;94.70
63875;DHT22;51595;24.180;-110.296;2022-08-01T06:19:03;29.70;94.60
63875;DHT22;51595;24.180;-110.296;2022-08-01T06:21:30;29.80;94.30
63875;DHT22;51595;24.180;-110.296;2022-08-01T06:23:56;29.90;94.60
63875;DHT22;51595;24.180;-110.296;2022-08-01T06:26:22;29.70;94.80
63875;DHT22;51595;24.180;-110.296;2022-08-01T06:28:49;29.70;95.00
63875;DHT22;51595;24.180;-110.296;2022-08-01T06:31:15;29.70;94.90
63875;DHT22;51595;24.180;-110.296;2022-08-01T06:33:42;29.70;95.00
63875;DHT22;51595;24.180;-110.296;2022-08-01T06:36:08;29.60;95.20
63875;DHT22;51595;24.180;-110.296;2022-08-01T06:38:35;29.60;95.10
63875;DHT22;51595;24.180;-110.296;2022-08-01T06:41:01;29.60;95.10
63875;DHT22;51595;24.180;-110.296;2022-08-01T06:43:28;29.70;95.00
63875;DHT22;51595;24.180;-110.296;2022-08-01T06:45:55;29.70;95.30
63875;DHT22;51595;24.180;-110.296;2022-08-01T06:48:21;29.60;95.40
63875;DHT22;51595;24.180;-110.296;2022-08-01T06:50:48;29.60;95.50
63875;DHT22;51595;24.180;-110.296;2022-08-01T06:53:15;29.60;95.70
63875;DHT22;51595;24.180;-110.296;2022-08-01T06:55:41;29.40;95.70
63875;DHT22;51595;24.180;-110.296;2022-08-01T06:58:07;29.60;95.80
63875;DHT22;51595;24.180;-110.296;2022-08-01T07:00:34;29.60;95.70
63875;DHT22;51595;24.180;-110.296;2022-08-01T07:03:01;29.50;95.80
63875;DHT22;51595;24.180;-110.296;2022-08-01T07:05:28;29.50;95.40
63875;DHT22;51595;24.180;-110.296;2022-08-01T07:07:56;29.60;95.40
63875;DHT22;51595;24.180;-110.296;2022-08-01T07:10:23;29.50;95.60
63875;DHT22;51595;24.180;-110.296;2022-08-01T07:12:50;29.50;95.60
63875;DHT22;51595;24.180;-110.296;2022-08-01T07:15:16;29.60;95.70
63875;DHT22;51595;24.180;-110.296;2022-08-01T07:17:44;29.60;95.50
63875;DHT22;51595;24.180;-110.296;2022-08-01T07:20:12;29.60;95.90
63875;DHT22;51595;24.180;-110.296;2022-08-01T07:22:38;29.40;95.80
63875;DHT22;51595;24.180;-110.296;2022-08-01T07:25:06;29.40;96.00
63875;DHT22;51595;24.180;-110.296;2022-08-01T07:27:33;29.30;96.10
63875;DHT22;51595;24.180;-110.296;2022-08-01T07:29:59;29.30;96.40
63875;DHT22;51595;24.180;-110.296;2022-08-01T07:32:26;29.30;96.40
63875;DHT22;51595;24.180;-110.296;2022-08-01T07:34:53;29.30;96.30
63875;DHT22;51595;24.180;-110.296;2022-08-01T07:37:19;29.20;96.90
63875;DHT22;51595;24.180;-110.296;2022-08-01T07:39:46;29.10;97.10
63875;DHT22;51595;24.180;-110.296;2022-08-01T07:42:13;29.10;97.10
63875;DHT22;51595;24.180;-110.296;2022-08-01T07:44:40;29.20;96.90
63875;DHT22;51595;24.180;-110.296;2022-08-01T07:47:07;29.40;96.80
63875;DHT22;51595;24.180;-110.296;2022-08-01T07:49:34;29.30;96.60
63875;DHT22;51595;24.180;-110.296;2022-08-01T07:52:00;29.20;97.10
63875;DHT22;51595;24.180;-110.296;2022-08-01T07:54:27;29.10;97.40
63875;DHT22;51595;24.180;-110.296;2022-08-01T07:56:55;29.10;97.50
63875;DHT22;51595;24.180;-110.296;2022-08-01T07:59:22;29.10;97.60
63875;DHT22;51595;24.180;-110.296;2022-08-01T08:01:51;29.10;97.70
63875;DHT22;51595;24.180;-110.296;2022-08-01T08:04:18;29.10;98.10
63875;DHT22;51595;24.180;-110.296;2022-08-01T08:06:44;29.10;98.10
63875;DHT22;51595;24.180;-110.296;2022-08-01T08:09:13;29.10;98.10
63875;DHT22;51595;24.180;-110.296;2022-08-01T08:11:42;29.20;98.20
63875;DHT22;51595;24.180;-110.296;2022-08-01T08:14:09;29.20;98.00
63875;DHT22;51595;24.180;-110.296;2022-08-01T08:16:35;29.00;98.00
63875;DHT22;51595;24.180;-110.296;2022-08-01T08:19:02;29.00;98.20
63875;DHT22;51595;24.180;-110.296;2022-08-01T08:21:29;29.10;98.40
63875;DHT22;51595;24.180;-110.296;2022-08-01T08:23:56;28.90;98.40
63875;DHT22;51595;24.180;-110.296;2022-08-01T08:26:40;28.90;98.90
63875;DHT22;51595;24.180;-110.296;2022-08-01T08:29:07;28.90;99.20
63875;DHT22;51595;24.180;-110.296;2022-08-01T08:31:33;29.00;99.30
63875;DHT22;51595;24.180;-110.296;2022-08-01T08:34:00;29.00;98.90
63875;DHT22;51595;24.180;-110.296;2022-08-01T08:36:26;29.00;98.90
63875;DHT22;51595;24.180;-110.296;2022-08-01T08:38:53;29.00;98.90
63875;DHT22;51595;24.180;-110.296;2022-08-01T08:41:19;28.90;99.20
63875;DHT22;51595;24.180;-110.296;2022-08-01T08:43:46;29.10;99.30
63875;DHT22;51595;24.180;-110.296;2022-08-01T08:46:12;28.90;99.20
63875;DHT22;51595;24.180;-110.296;2022-08-01T08:48:41;29.00;99.50
63875;DHT22;51595;24.180;-110.296;2022-08-01T08:51:08;29.00;99.50
63875;DHT22;51595;24.180;-110.296;2022-08-01T08:53:40;28.90;99.80
63875;DHT22;51595;24.180;-110.296;2022-08-01T08:56:11;28.80;99.90
63875;DHT22;51595;24.180;-110.296;2022-08-01T08:58:38;28.70;99.90
63875;DHT22;51595;24.180;-110.296;2022-08-01T09:01:07;28.70;99.90
63875;DHT22;51595;24.180;-110.296;2022-08-01T09:03:36;28.60;99.90
63875;DHT22;51595;24.180;-110.296;2022-08-01T09:06:03;28.50;99.90
63875;DHT22;51595;24.180;-110.296;2022-08-01T09:08:30;28.60;99.90
63875;DHT22;51595;24.180;-110.296;2022-08-01T09:10:56;28.60;99.90
63875;DHT22;51595;24.180;-110.296;2022-08-01T09:13:23;28.60;99.90
63875;DHT22;51595;24.180;-110.296;2022-08-01T09:15:54;28.60;99.90
63875;DHT22;51595;24.180;-110.296;2022-08-01T09:18:38;28.70;99.90
63875;DHT22;51595;24.180;-110.296;2022-08-01T09:23:34;28.70;99.90
63875;DHT22;51595;24.180;-110.296;2022-08-01T09:26:00;28.70;99.90
63875;DHT22;51595;24.180;-110.296;2022-08-01T09:28:30;28.80;99.90
63875;DHT22;51595;24.180;-110.296;2022-08-01T09:30:57;28.80;99.90
63875;DHT22;51595;24.180;-110.296;2022-08-01T09:33:24;28.70;99.90
63875;DHT22;51595;24.180;-110.296;2022-08-01T09:35:56;28.80;99.90
63875;DHT22;51595;24.180;-110.296;2022-08-01T09:38:25;28.80;99.90
63875;DHT22;51595;24.180;-110.296;2022-08-01T09:41:00;28.70;99.90
63875;DHT22;51595;24.180;-110.296;2022-08-01T09:43:28;28.70;99.90
63875;DHT22;51595;24.180;-110.296;2022-08-01T09:45:56;28.70;99.90
63875;DHT22;51595;24.180;-110.296;2022-08-01T09:48:22;28.70;99.90
63875;DHT22;51595;24.180;-110.296;2022-08-01T09:50:52;28.80;99.90
63875;DHT22;51595;24.180;-110.296;2022-08-01T09:53:19;28.80;99.90
63875;DHT22;51595;24.180;-110.296;2022-08-01T09:55:46;28.70;99.90
63875;DHT22;51595;24.180;-110.296;2022-08-01T09:58:12;28.70;99.90
63875;DHT22;51595;24.180;-110.296;2022-08-01T10:00:39;28.70;99.90
63875;DHT22;51595;24.180;-110.296;2022-08-01T10:03:23;28.80;99.90
63875;DHT22;51595;24.180;-110.296;2022-08-01T10:05:49;28.80;99.90
63875;DHT22;51595;24.180;-110.296;2022-08-01T10:08:17;28.80;99.90
63875;DHT22;51595;24.180;-110.296;2022-08-01T10:11:08;28.80;99.90
63875;DHT22;51595;24.180;-110.296;2022-08-01T10:13:35;28.80;99.90
63875;DHT22;51595;24.180;-110.296;2022-08-01T10:16:02;28.80;99.90
63875;DHT22;51595;24.180;-110.296;2022-08-01T10:18:33;28.80;99.90
63875;DHT22;51595;24.180;-110.296;2022-08-01T10:21:01;28.90;99.90
63875;DHT22;51595;24.180;-110.296;2022-08-01T10:23:33;28.90;99.90
63875;DHT22;51595;24.180;-110.296;2022-08-01T10:26:01;28.90;99.90
63875;DHT22;51595;24.180;-110.296;2022-08-01T10:28:31;28.90;99.90
63875;DHT22;51595;24.180;-110.296;2022-08-01T10:31:00;28.90;99.90
63875;DHT22;51595;24.180;-110.296;2022-08-01T10:33:29;28.90;99.90
63875;DHT22;51595;24.180;-110.296;2022-08-01T10:35:56;28.90;99.90
63875;DHT22;51595;24.180;-110.296;2022-08-01T10:38:23;28.90;99.90
63875;DHT22;51595;24.180;-110.296;2022-08-01T10:40:50;29.00;99.90
63875;DHT22;51595;24.180;-110.296;2022-08-01T10:43:19;28.80;99.90
63875;DHT22;51595;24.180;-110.296;2022-08-01T10:45:45;28.90;99.90
63875;DHT22;51595;24.180;-110.296;2022-08-01T10:51:07;28.90;99.90
63875;DHT22;51595;24.180;-110.296;2022-08-01T10:53:34;28.80;99.90
63875;DHT22;51595;24.180;-110.296;2022-08-01T10:56:02;28.80;99.90
63875;DHT22;51595;24.180;-110.296;2022-08-01T10:58:34;28.80;99.90
63875;DHT22;51595;24.180;-110.296;2022-08-01T11:01:24;28.80;99.90
63875;DHT22;51595;24.180;-110.296;2022-08-01T11:12:05;28.70;99.90
63875;DHT22;51595;24.180;-110.296;2022-08-01T11:17:39;28.80;99.90
63875;DHT22;51595;24.180;-110.296;2022-08-01T11:30:49;28.70;99.90
63875;DHT22;51595;24.180;-110.296;2022-08-01T11:33:17;28.80;99.90
63875;DHT22;51595;24.180;-110.296;2022-08-01T11:38:40;28.80;99.90
63875;DHT22;51595;24.180;-110.296;2022-08-01T11:41:26;28.80;99.90
63875;DHT22;51595;24.180;-110.296;2022-08-01T11:44:12;28.80;99.90
63875;DHT22;51595;24.180;-110.296;2022-08-01T11:47:03;28.80;99.90
63875;DHT22;51595;24.180;-110.296;2022-08-01T11:52:09;28.80;99.90
63875;DHT22;51595;24.180;-110.296;2022-08-01T11:59:45;28.80;99.90
63875;DHT22;51595;24.180;-110.296;2022-08-01T12:02:22;28.80;99.90
63875;DHT22;51595;24.180;-110.296;2022-08-01T12:07:17;28.80;99.90
63875;DHT22;51595;24.180;-110.296;2022-08-01T12:09:44;28.90;99.90
63875;DHT22;51595;24.180;-110.296;2022-08-01T12:12:15;28.90;99.90
63875;DHT22;51595;24.180;-110.296;2022-08-01T12:14:45;28.90;99.80
63875;DHT22;51595;24.180;-110.296;2022-08-01T12:17:27;28.80;99.80
63875;DHT22;51595;24.180;-110.296;2022-08-01T12:19:54;28.90;99.80
63875;DHT22;51595;24.180;-110.296;2022-08-01T12:22:23;28.90;99.70
63875;DHT22;51595;24.180;-110.296;2022-08-01T12:24:50;28.90;99.60
63875;DHT22;51595;24.180;-110.296;2022-08-01T12:27:30;28.90;99.70
63875;DHT22;51595;24.180;-110.296;2022-08-01T12:29:58;29.00;99.40
63875;DHT22;51595;24.180;-110.296;2022-08-01T12:32:29;28.80;99.60
63875;DHT22;51595;24.180;-110.296;2022-08-01T12:35:06;28.90;99.50
63875;DHT22;51595;24.180;-110.296;2022-08-01T12:37:47;28.90;99.50
63875;DHT22;51595;24.180;-110.296;2022-08-01T12:40:23;28.90;99.40
63875;DHT22;51595;24.180;-110.296;2022-08-01T12:42:52;28.90;99.50
63875;DHT22;51595;24.180;-110.296;2022-08-01T12:45:25;28.80;99.50
63875;DHT22;51595;24.180;-110.296;2022-08-01T12:47:53;28.80;99.50
63875;DHT22;51595;24.180;-110.296;2022-08-01T12:50:21;28.90;99.50
63875;DHT22;51595;24.180;-110.296;2022-08-01T12:52:49;28.80;99.40
63875;DHT22;51595;24.180;-110.296;2022-08-01T12:55:21;28.80;99.30
63875;DHT22;51595;24.180;-110.296;2022-08-01T12:57:49;28.80;99.40
63875;DHT22;51595;24.180;-110.296;2022-08-01T13:00:23;28.70;99.40
63875;DHT22;51595;24.180;-110.296;2022-08-01T13:03:04;28.80;99.40
63875;DHT22;51595;24.180;-110.296;2022-08-01T13:05:52;28.80;99.30
63875;DHT22;51595;24.180;-110.296;2022-08-01T13:08:31;28.70;99.00
63875;DHT22;51595;24.180;-110.296;2022-08-01T13:11:07;28.70;99.30
63875;DHT22;51595;24.180;-110.296;2022-08-01T13:13:48;28.80;99.10
63875;DHT22;51595;24.180;-110.296;2022-08-01T13:16:19;28.80;99.10
63875;DHT22;51595;24.180;-110.296;2022-08-01T13:18:50;28.90;98.90
63875;DHT22;51595;24.180;-110.296;2022-08-01T13:21:22;29.00;98.80
63875;DHT22;51595;24.180;-110.296;2022-08-01T13:24:12;29.00;98.70
63875;DHT22;51595;24.180;-110.296;2022-08-01T13:26:44;28.90;98.80
63875;DHT22;51595;24.180;-110.296;2022-08-01T13:29:13;28.90;98.70
63875;DHT22;51595;24.180;-110.296;2022-08-01T13:31:41;29.10;98.50
63875;DHT22;51595;24.180;-110.296;2022-08-01T13:34:08;29.00;98.30
63875;DHT22;51595;24.180;-110.296;2022-08-01T13:36:36;29.00;98.40
63875;DHT22;51595;24.180;-110.296;2022-08-01T13:39:03;29.10;98.40
63875;DHT22;51595;24.180;-110.296;2022-08-01T13:41:48;29.20;98.20
63875;DHT22;51595;24.180;-110.296;2022-08-01T13:44:15;29.20;98.10
63875;DHT22;51595;24.180;-110.296;2022-08-01T13:46:42;29.00;98.20
63875;DHT22;51595;24.180;-110.296;2022-08-01T13:49:11;29.00;98.40
63875;DHT22;51595;24.180;-110.296;2022-08-01T13:51:39;28.90;98.70
63875;DHT22;51595;24.180;-110.296;2022-08-01T13:54:06;29.00;98.50
63875;DHT22;51595;24.180;-110.296;2022-08-01T13:56:33;29.00;98.50
63875;DHT22;51595;24.180;-110.296;2022-08-01T13:59:00;29.00;98.50
63875;DHT22;51595;24.180;-110.296;2022-08-01T14:01:26;29.10;98.50
63875;DHT22;51595;24.180;-110.296;2022-08-01T14:03:52;29.20;98.20
63875;DHT22;51595;24.180;-110.296;2022-08-01T14:06:20;29.30;98.10
63875;DHT22;51595;24.180;-110.296;2022-08-01T14:08:48;29.40;97.80
63875;DHT22;51595;24.180;-110.296;2022-08-01T14:11:16;29.80;96.90
63875;DHT22;51595;24.180;-110.296;2022-08-01T14:13:43;30.00;96.40
63875;DHT22;51595;24.180;-110.296;2022-08-01T14:16:11;30.10;96.10
63875;DHT22;51595;24.180;-110.296;2022-08-01T14:18:38;30.20;95.50
63875;DHT22;51595;24.180;-110.296;2022-08-01T14:21:04;30.30;95.10
63875;DHT22;51595;24.180;-110.296;2022-08-01T14:23:31;30.30;94.90
63875;DHT22;51595;24.180;-110.296;2022-08-01T14:25:57;30.30;95.10
63875;DHT22;51595;24.180;-110.296;2022-08-01T14:28:24;30.50;94.70
63875;DHT22;51595;24.180;-110.296;2022-08-01T14:30:51;30.80;94.20
63875;DHT22;51595;24.180;-110.296;2022-08-01T14:33:17;31.10;93.30
63875;DHT22;51595;24.180;-110.296;2022-08-01T14:35:44;31.00;92.80
63875;DHT22;51595;24.180;-110.296;2022-08-01T18:32:57;33.70;69.60
63875;DHT22;51595;24.180;-110.296;2022-08-01T18:35:24;34.20;72.60
63875;DHT22;51595;24.180;-110.296;2022-08-01T18:37:54;34.60;71.50
63875;DHT22;51595;24.180;-110.296;2022-08-01T18:40:22;34.70;68.50
63875;DHT22;51595;24.180;-110.296;2022-08-01T18:42:49;34.90;68.00
63875;DHT22;51595;24.180;-110.296;2022-08-01T18:45:16;34.90;69.20
63875;DHT22;51595;24.180;-110.296;2022-08-01T18:47:42;34.70;71.20
63875;DHT22;51595;24.180;-110.296;2022-08-01T18:50:10;34.60;71.90
63875;DHT22;51595;24.180;-110.296;2022-08-01T18:52:36;34.40;72.90
63875;DHT22;51595;24.180;-110.296;2022-08-01T18:55:03;34.20;74.10
63875;DHT22;51595;24.180;-110.296;2022-08-01T18:57:30;34.40;74.40
63875;DHT22;51595;24.180;-110.296;2022-08-01T18:59:56;34.60;73.90
63875;DHT22;51595;24.180;-110.296;2022-08-01T19:02:23;34.80;73.20
63875;DHT22;51595;24.180;-110.296;2022-08-01T19:04:50;34.80;74.00
63875;DHT22;51595;24.180;-110.296;2022-08-01T19:07:16;35.00;72.90
63875;DHT22;51595;24.180;-110.296;2022-08-01T19:09:43;34.50;74.50
63875;DHT22;51595;24.180;-110.296;2022-08-01T19:12:09;34.70;73.60
63875;DHT22;51595;24.180;-110.296;2022-08-01T19:14:35;34.80;71.80
63875;DHT22;51595;24.180;-110.296;2022-08-01T19:17:02;35.10;70.60
63875;DHT22;51595;24.180;-110.296;2022-08-01T19:19:28;35.30;70.80
63875;DHT22;51595;24.180;-110.296;2022-08-01T19:21:55;35.30;69.30
63875;DHT22;51595;24.180;-110.296;2022-08-01T19:24:21;35.20;70.20
63875;DHT22;51595;24.180;-110.296;2022-08-01T19:26:57;35.00;70.20
63875;DHT22;51595;24.180;-110.296;2022-08-01T19:29:30;35.30;68.80
63875;DHT22;51595;24.180;-110.296;2022-08-01T19:31:58;35.50;69.50
63875;DHT22;51595;24.180;-110.296;2022-08-01T19:34:28;35.20;69.70
63875;DHT22;51595;24.180;-110.296;2022-08-01T19:36:56;35.00;71.00
63875;DHT22;51595;24.180;-110.296;2022-08-01T19:39:24;34.90;73.60
63875;DHT22;51595;24.180;-110.296;2022-08-01T19:41:53;34.90;72.10
63875;DHT22;51595;24.180;-110.296;2022-08-01T19:44:22;34.70;71.40